sensor_id;sensor_type;location;lat;lon;timestamp;P1;durP1;ratioP1;P2;durP2;ratioP2
80322;SDS011;69636;52.372;13.610;2023-06-01T00:00:26;4.50;;;2.00;;
80322;SDS011;69636;52.372;13.610;2023-06-01T00:02:55;5.18;;;1.88;;
80322;SDS011;69636;52.372;13.610;2023-06-01T00:05:22;3.65;;;1.80;;
80322;SDS011;69636;52.372;13.610;2023-06-01T00:07:49;3.13;;;1.50;;
80322;SDS011;69636;52.372;13.610;2023-06-01T00:10:17;4.60;;;2.10;;
80322;SDS011;69636;52.372;13.610;2023-06-01T00:12:44;4.93;;;2.45;;
80322;SDS011;69636;52.372;13.610;2023-06-01T00:15:11;4.70;;;1.90;;
80322;SDS011;69636;52.372;13.610;2023-06-01T00:17:39;4.05;;;2.08;;
80322;SDS011;69636;52.372;13.610;2023-06-01T00:20:08;3.10;;;1.77;;
80322;SDS011;69636;52.372;13.610;2023-06-01T00:22:35;4.82;;;2.67;;
80322;SDS011;69636;52.372;13.610;2023-06-01T00:25:03;4.40;;;1.85;;
80322;SDS011;69636;52.372;13.610;2023-06-01T00:27:31;5.38;;;1.77;;
80322;SDS011;69636;52.372;13.610;2023-06-01T00:29:58;3.45;;;2.08;;
80322;SDS011;69636;52.372;13.610;2023-06-01T00:32:25;4.78;;;1.80;;
80322;SDS011;69636;52.372;13.610;2023-06-01T00:34:53;5.05;;;2.42;;
80322;SDS011;69636;52.372;13.610;2023-06-01T00:37:21;5.35;;;1.90;;
80322;SDS011;69636;52.372;13.610;2023-06-01T00:39:49;3.80;;;1.63;;
80322;SDS011;69636;52.372;13.610;2023-06-01T00:42:16;4.95;;;2.00;;
80322;SDS011;69636;52.372;13.610;2023-06-01T00:44:43;4.18;;;2.00;;
80322;SDS011;69636;52.372;13.610;2023-06-01T00:47:10;3.95;;;1.90;;
80322;SDS011;69636;52.372;13.610;2023-06-01T00:49:38;4.85;;;1.73;;
80322;SDS011;69636;52.372;13.610;2023-06-01T00:52:06;4.20;;;1.83;;
80322;SDS011;69636;52.372;13.610;2023-06-01T00:54:35;4.40;;;2.67;;
80322;SDS011;69636;52.372;13.610;2023-06-01T00:57:02;3.70;;;1.80;;
80322;SDS011;69636;52.372;13.610;2023-06-01T00:59:30;4.18;;;2.15;;
80322;SDS011;69636;52.372;13.610;2023-06-01T01:01:57;5.63;;;3.10;;
80322;SDS011;69636;52.372;13.610;2023-06-01T01:04:25;5.40;;;2.97;;
80322;SDS011;69636;52.372;13.610;2023-06-01T01:06:53;5.20;;;3.53;;
80322;SDS011;69636;52.372;13.610;2023-06-01T01:09:31;4.70;;;2.10;;
80322;SDS011;69636;52.372;13.610;2023-06-01T01:12:06;5.22;;;2.10;;
80322;SDS011;69636;52.372;13.610;2023-06-01T01:17:08;4.32;;;1.95;;
80322;SDS011;69636;52.372;13.610;2023-06-01T01:19:43;4.63;;;1.95;;
80322;SDS011;69636;52.372;13.610;2023-06-01T01:22:24;4.40;;;1.80;;
80322;SDS011;69636;52.372;13.610;2023-06-01T01:25:13;4.28;;;1.83;;
80322;SDS011;69636;52.372;13.610;2023-06-01T01:27:54;3.88;;;1.88;;
80322;SDS011;69636;52.372;13.610;2023-06-01T01:30:37;3.80;;;2.45;;
80322;SDS011;69636;52.372;13.610;2023-06-01T01:33:07;4.07;;;1.92;;
80322;SDS011;69636;52.372;13.610;2023-06-01T01:35:36;4.13;;;2.15;;
80322;SDS011;69636;52.372;13.610;2023-06-01T01:38:05;5.22;;;2.17;;
80322;SDS011;69636;52.372;13.610;2023-06-01T01:40:33;4.50;;;1.80;;
80322;SDS011;69636;52.372;13.610;2023-06-01T01:43:00;4.22;;;1.92;;
80322;SDS011;69636;52.372;13.610;2023-06-01T01:45:28;3.47;;;2.00;;
80322;SDS011;69636;52.372;13.610;2023-06-01T01:50:29;4.32;;;1.90;;
80322;SDS011;69636;52.372;13.610;2023-06-01T01:53:02;6.07;;;2.20;;
80322;SDS011;69636;52.372;13.610;2023-06-01T01:55:33;4.40;;;2.63;;
80322;SDS011;69636;52.372;13.610;2023-06-01T01:58:02;5.10;;;2.65;;
80322;SDS011;69636;52.372;13.610;2023-06-01T02:00:30;5.00;;;2.20;;
80322;SDS011;69636;52.372;13.610;2023-06-01T02:02:59;5.47;;;1.92;;
80322;SDS011;69636;52.372;13.610;2023-06-01T02:05:27;4.50;;;2.38;;
80322;SDS011;69636;52.372;13.610;2023-06-01T02:07:54;5.38;;;2.40;;
80322;SDS011;69636;52.372;13.610;2023-06-01T02:10:22;5.22;;;2.20;;
80322;SDS011;69636;52.372;13.610;2023-06-01T02:12:49;4.38;;;2.30;;
80322;SDS011;69636;52.372;13.610;2023-06-01T02:15:16;7.20;;;2.42;;
80322;SDS011;69636;52.372;13.610;2023-06-01T02:17:43;4.25;;;2.17;;
80322;SDS011;69636;52.372;13.610;2023-06-01T02:20:14;5.25;;;2.42;;
80322;SDS011;69636;52.372;13.610;2023-06-01T02:22:41;7.50;;;2.70;;
80322;SDS011;69636;52.372;13.610;2023-06-01T02:25:09;5.47;;;2.55;;
80322;SDS011;69636;52.372;13.610;2023-06-01T02:27:36;5.40;;;3.53;;
80322;SDS011;69636;52.372;13.610;2023-06-01T02:30:04;6.55;;;2.55;;
80322;SDS011;69636;52.372;13.610;2023-06-01T02:32:32;5.13;;;3.92;;
80322;SDS011;69636;52.372;13.610;2023-06-01T02:34:59;5.65;;;4.03;;
80322;SDS011;69636;52.372;13.610;2023-06-01T02:37:28;4.70;;;2.30;;
80322;SDS011;69636;52.372;13.610;2023-06-01T02:39:55;5.95;;;2.55;;
80322;SDS011;69636;52.372;13.610;2023-06-01T02:42:23;5.88;;;2.30;;
80322;SDS011;69636;52.372;13.610;2023-06-01T02:44:50;3.72;;;2.17;;
80322;SDS011;69636;52.372;13.610;2023-06-01T02:47:17;5.55;;;2.20;;
80322;SDS011;69636;52.372;13.610;2023-06-01T02:49:45;5.40;;;2.50;;
80322;SDS011;69636;52.372;13.610;2023-06-01T02:52:12;5.00;;;2.15;;
80322;SDS011;69636;52.372;13.610;2023-06-01T02:54:41;6.03;;;2.65;;
80322;SDS011;69636;52.372;13.610;2023-06-01T02:57:08;5.30;;;2.40;;
80322;SDS011;69636;52.372;13.610;2023-06-01T02:59:35;5.47;;;2.60;;
80322;SDS011;69636;52.372;13.610;2023-06-01T03:02:02;3.65;;;2.00;;
80322;SDS011;69636;52.372;13.610;2023-06-01T03:04:30;4.18;;;2.13;;
80322;SDS011;69636;52.372;13.610;2023-06-01T03:06:57;7.03;;;2.95;;
80322;SDS011;69636;52.372;13.610;2023-06-01T03:09:25;8.25;;;3.22;;
80322;SDS011;69636;52.372;13.610;2023-06-01T03:11:53;6.03;;;3.10;;
80322;SDS011;69636;52.372;13.610;2023-06-01T03:14:21;5.18;;;2.55;;
80322;SDS011;69636;52.372;13.610;2023-06-01T03:16:48;5.90;;;2.80;;
80322;SDS011;69636;52.372;13.610;2023-06-01T03:19:15;7.55;;;3.03;;
80322;SDS011;69636;52.372;13.610;2023-06-01T03:21:42;4.57;;;2.97;;
80322;SDS011;69636;52.372;13.610;2023-06-01T03:24:10;5.22;;;2.55;;
80322;SDS011;69636;52.372;13.610;2023-06-01T03:26:37;11.65;;;3.30;;
80322;SDS011;69636;52.372;13.610;2023-06-01T03:29:06;8.10;;;3.28;;
80322;SDS011;69636;52.372;13.610;2023-06-01T03:31:33;6.93;;;2.40;;
80322;SDS011;69636;52.372;13.610;2023-06-01T03:34:00;6.07;;;2.90;;
80322;SDS011;69636;52.372;13.610;2023-06-01T03:36:28;6.15;;;2.65;;
80322;SDS011;69636;52.372;13.610;2023-06-01T03:38:55;7.38;;;2.72;;
80322;SDS011;69636;52.372;13.610;2023-06-01T03:41:22;6.00;;;3.33;;
80322;SDS011;69636;52.372;13.610;2023-06-01T03:43:49;6.80;;;3.10;;
80322;SDS011;69636;52.372;13.610;2023-06-01T03:46:18;7.03;;;3.38;;
80322;SDS011;69636;52.372;13.610;2023-06-01T03:48:46;8.18;;;3.95;;
80322;SDS011;69636;52.372;13.610;2023-06-01T03:51:13;8.00;;;3.03;;
80322;SDS011;69636;52.372;13.610;2023-06-01T03:53:40;5.20;;;2.85;;
80322;SDS011;69636;52.372;13.610;2023-06-01T03:56:07;8.02;;;3.13;;
80322;SDS011;69636;52.372;13.610;2023-06-01T03:58:35;8.07;;;3.50;;
80322;SDS011;69636;52.372;13.610;2023-06-01T04:01:02;10.52;;;3.63;;
80322;SDS011;69636;52.372;13.610;2023-06-01T04:03:31;11.23;;;3.97;;
80322;SDS011;69636;52.372;13.610;2023-06-01T04:05:59;8.48;;;3.92;;
80322;SDS011;69636;52.372;13.610;2023-06-01T04:08:26;7.88;;;3.15;;
80322;SDS011;69636;52.372;13.610;2023-06-01T04:10:53;11.32;;;4.15;;
80322;SDS011;69636;52.372;13.610;2023-06-01T04:13:21;9.82;;;3.80;;
80322;SDS011;69636;52.372;13.610;2023-06-01T04:15:48;11.77;;;4.05;;
80322;SDS011;69636;52.372;13.610;2023-06-01T04:18:15;8.23;;;4.43;;
80322;SDS011;69636;52.372;13.610;2023-06-01T04:20:44;8.35;;;3.90;;
80322;SDS011;69636;52.372;13.610;2023-06-01T04:23:12;8.68;;;4.25;;
80322;SDS011;69636;52.372;13.610;2023-06-01T04:25:39;7.78;;;4.20;;
80322;SDS011;69636;52.372;13.610;2023-06-01T04:28:06;9.27;;;4.30;;
80322;SDS011;69636;52.372;13.610;2023-06-01T04:30:33;9.38;;;4.45;;
80322;SDS011;69636;52.372;13.610;2023-06-01T04:33:01;9.75;;;4.60;;
80322;SDS011;69636;52.372;13.610;2023-06-01T04:35:28;10.82;;;4.95;;
80322;SDS011;69636;52.372;13.610;2023-06-01T04:37:57;10.88;;;4.90;;
80322;SDS011;69636;52.372;13.610;2023-06-01T04:40:24;9.73;;;4.82;;
80322;SDS011;69636;52.372;13.610;2023-06-01T04:42:51;10.55;;;5.07;;
80322;SDS011;69636;52.372;13.610;2023-06-01T04:45:18;9.35;;;4.72;;
80322;SDS011;69636;52.372;13.610;2023-06-01T04:47:46;8.15;;;4.95;;
80322;SDS011;69636;52.372;13.610;2023-06-01T04:50:14;9.80;;;4.65;;
80322;SDS011;69636;52.372;13.610;2023-06-01T04:52:41;10.90;;;4.47;;
80322;SDS011;69636;52.372;13.610;2023-06-01T04:55:11;11.05;;;4.63;;
80322;SDS011;69636;52.372;13.610;2023-06-01T04:57:38;9.15;;;4.35;;
80322;SDS011;69636;52.372;13.610;2023-06-01T05:00:06;10.65;;;5.30;;
80322;SDS011;69636;52.372;13.610;2023-06-01T05:02:34;10.73;;;4.68;;
80322;SDS011;69636;52.372;13.610;2023-06-01T05:05:01;10.25;;;5.03;;
80322;SDS011;69636;52.372;13.610;2023-06-01T05:07:29;10.93;;;5.15;;
80322;SDS011;69636;52.372;13.610;2023-06-01T05:09:56;11.27;;;4.53;;
80322;SDS011;69636;52.372;13.610;2023-06-01T05:12:25;12.68;;;4.80;;
80322;SDS011;69636;52.372;13.610;2023-06-01T05:14:52;11.43;;;4.68;;
80322;SDS011;69636;52.372;13.610;2023-06-01T05:17:19;8.52;;;5.13;;
80322;SDS011;69636;52.372;13.610;2023-06-01T05:19:47;8.20;;;4.20;;
80322;SDS011;69636;52.372;13.610;2023-06-01T05:22:14;11.35;;;5.28;;
80322;SDS011;69636;52.372;13.610;2023-06-01T05:24:41;12.63;;;6.20;;
80322;SDS011;69636;52.372;13.610;2023-06-01T05:27:09;11.80;;;5.55;;
80322;SDS011;69636;52.372;13.610;2023-06-01T05:29:37;10.88;;;6.68;;
80322;SDS011;69636;52.372;13.610;2023-06-01T05:32:05;10.10;;;6.53;;
80322;SDS011;69636;52.372;13.610;2023-06-01T05:34:34;12.63;;;7.05;;
80322;SDS011;69636;52.372;13.610;2023-06-01T05:37:01;18.33;;;8.50;;
80322;SDS011;69636;52.372;13.610;2023-06-01T05:39:30;15.00;;;9.35;;
80322;SDS011;69636;52.372;13.610;2023-06-01T05:41:57;15.80;;;8.75;;
80322;SDS011;69636;52.372;13.610;2023-06-01T05:44:25;16.48;;;8.82;;
80322;SDS011;69636;52.372;13.610;2023-06-01T05:46:53;15.68;;;7.97;;
80322;SDS011;69636;52.372;13.610;2023-06-01T05:49:21;13.35;;;7.30;;
80322;SDS011;69636;52.372;13.610;2023-06-01T05:51:48;15.70;;;7.25;;
80322;SDS011;69636;52.372;13.610;2023-06-01T05:54:15;14.57;;;7.05;;
80322;SDS011;69636;52.372;13.610;2023-06-01T05:56:43;13.52;;;7.43;;
80322;SDS011;69636;52.372;13.610;2023-06-01T06:01:38;12.02;;;7.80;;
80322;SDS011;69636;52.372;13.610;2023-06-01T06:04:06;13.82;;;7.03;;
80322;SDS011;69636;52.372;13.610;2023-06-01T06:06:34;16.90;;;8.48;;
80322;SDS011;69636;52.372;13.610;2023-06-01T06:09:01;15.10;;;8.43;;
80322;SDS011;69636;52.372;13.610;2023-06-01T06:11:29;15.05;;;7.70;;
80322;SDS011;69636;52.372;13.610;2023-06-01T06:13:56;14.35;;;7.97;;
80322;SDS011;69636;52.372;13.610;2023-06-01T06:16:23;14.07;;;7.25;;
80322;SDS011;69636;52.372;13.610;2023-06-01T06:18:51;14.40;;;7.60;;
80322;SDS011;69636;52.372;13.610;2023-06-01T06:21:19;13.98;;;8.63;;
80322;SDS011;69636;52.372;13.610;2023-06-01T06:23:47;14.75;;;7.05;;
80322;SDS011;69636;52.372;13.610;2023-06-01T06:26:16;15.75;;;9.02;;
80322;SDS011;69636;52.372;13.610;2023-06-01T06:28:43;12.95;;;8.07;;
80322;SDS011;69636;52.372;13.610;2023-06-01T06:31:10;13.15;;;8.25;;
80322;SDS011;69636;52.372;13.610;2023-06-01T06:33:37;17.40;;;7.70;;
80322;SDS011;69636;52.372;13.610;2023-06-01T06:36:05;14.63;;;7.15;;
80322;SDS011;69636;52.372;13.610;2023-06-01T06:38:34;10.32;;;6.47;;
80322;SDS011;69636;52.372;13.610;2023-06-01T06:41:01;12.15;;;6.90;;
80322;SDS011;69636;52.372;13.610;2023-06-01T06:43:29;10.02;;;6.00;;
80322;SDS011;69636;52.372;13.610;2023-06-01T06:45:56;12.18;;;6.28;;
80322;SDS011;69636;52.372;13.610;2023-06-01T06:48:24;8.85;;;5.70;;
80322;SDS011;69636;52.372;13.610;2023-06-01T06:50:51;9.90;;;6.38;;
80322;SDS011;69636;52.372;13.610;2023-06-01T06:53:18;10.32;;;5.68;;
80322;SDS011;69636;52.372;13.610;2023-06-01T06:55:47;12.63;;;5.68;;
80322;SDS011;69636;52.372;13.610;2023-06-01T06:58:14;10.27;;;6.43;;
80322;SDS011;69636;52.372;13.610;2023-06-01T07:00:42;12.10;;;6.07;;
80322;SDS011;69636;52.372;13.610;2023-06-01T07:03:09;10.40;;;6.18;;
80322;SDS011;69636;52.372;13.610;2023-06-01T07:08:04;9.95;;;5.72;;
80322;SDS011;69636;52.372;13.610;2023-06-01T07:10:31;10.23;;;5.70;;
80322;SDS011;69636;52.372;13.610;2023-06-01T07:13:00;9.25;;;6.10;;
80322;SDS011;69636;52.372;13.610;2023-06-01T07:15:27;8.25;;;5.43;;
80322;SDS011;69636;52.372;13.610;2023-06-01T07:17:55;11.85;;;5.07;;
80322;SDS011;69636;52.372;13.610;2023-06-01T07:20:22;10.15;;;5.05;;
80322;SDS011;69636;52.372;13.610;2023-06-01T07:22:49;9.00;;;5.22;;
80322;SDS011;69636;52.372;13.610;2023-06-01T07:25:17;12.25;;;5.38;;
80322;SDS011;69636;52.372;13.610;2023-06-01T07:27:44;9.88;;;5.28;;
80322;SDS011;69636;52.372;13.610;2023-06-01T07:30:13;9.50;;;5.15;;
80322;SDS011;69636;52.372;13.610;2023-06-01T07:32:41;10.32;;;5.40;;
80322;SDS011;69636;52.372;13.610;2023-06-01T07:35:09;9.73;;;5.22;;
80322;SDS011;69636;52.372;13.610;2023-06-01T07:37:36;7.13;;;4.45;;
80322;SDS011;69636;52.372;13.610;2023-06-01T07:40:04;8.80;;;4.90;;
80322;SDS011;69636;52.372;13.610;2023-06-01T07:42:34;11.55;;;4.88;;
80322;SDS011;69636;52.372;13.610;2023-06-01T07:45:02;11.85;;;4.72;;
80322;SDS011;69636;52.372;13.610;2023-06-01T07:47:31;9.70;;;4.80;;
80322;SDS011;69636;52.372;13.610;2023-06-01T07:49:58;9.50;;;5.10;;
80322;SDS011;69636;52.372;13.610;2023-06-01T07:52:25;7.88;;;5.00;;
80322;SDS011;69636;52.372;13.610;2023-06-01T07:54:52;11.05;;;4.65;;
80322;SDS011;69636;52.372;13.610;2023-06-01T07:57:20;8.98;;;4.22;;
80322;SDS011;69636;52.372;13.610;2023-06-01T07:59:47;9.75;;;4.80;;
80322;SDS011;69636;52.372;13.610;2023-06-01T08:02:14;13.35;;;6.20;;
80322;SDS011;69636;52.372;13.610;2023-06-01T08:04:43;9.32;;;4.70;;
80322;SDS011;69636;52.372;13.610;2023-06-01T08:07:10;9.23;;;4.30;;
80322;SDS011;69636;52.372;13.610;2023-06-01T08:09:38;9.25;;;4.80;;
80322;SDS011;69636;52.372;13.610;2023-06-01T08:12:05;10.77;;;5.15;;
80322;SDS011;69636;52.372;13.610;2023-06-01T08:17:00;8.10;;;4.60;;
80322;SDS011;69636;52.372;13.610;2023-06-01T08:19:28;8.55;;;4.72;;
80322;SDS011;69636;52.372;13.610;2023-06-01T08:21:57;8.93;;;4.63;;
80322;SDS011;69636;52.372;13.610;2023-06-01T08:24:24;9.60;;;4.38;;
80322;SDS011;69636;52.372;13.610;2023-06-01T08:29:20;10.23;;;4.68;;
80322;SDS011;69636;52.372;13.610;2023-06-01T08:32:07;8.35;;;4.68;;
80322;SDS011;69636;52.372;13.610;2023-06-01T08:34:35;9.93;;;4.93;;
80322;SDS011;69636;52.372;13.610;2023-06-01T08:37:04;10.75;;;5.07;;
80322;SDS011;69636;52.372;13.610;2023-06-01T08:39:32;7.88;;;4.03;;
80322;SDS011;69636;52.372;13.610;2023-06-01T08:42:03;8.45;;;3.83;;
80322;SDS011;69636;52.372;13.610;2023-06-01T08:44:38;9.50;;;3.88;;
80322;SDS011;69636;52.372;13.610;2023-06-01T08:47:07;7.57;;;4.15;;
80322;SDS011;69636;52.372;13.610;2023-06-01T08:49:35;7.53;;;3.47;;
80322;SDS011;69636;52.372;13.610;2023-06-01T08:52:06;9.95;;;4.25;;
80322;SDS011;69636;52.372;13.610;2023-06-01T08:54:37;7.90;;;3.47;;
80322;SDS011;69636;52.372;13.610;2023-06-01T08:57:05;9.05;;;4.30;;
80322;SDS011;69636;52.372;13.610;2023-06-01T08:59:34;11.25;;;4.55;;
80322;SDS011;69636;52.372;13.610;2023-06-01T09:02:01;5.95;;;3.50;;
80322;SDS011;69636;52.372;13.610;2023-06-01T09:04:29;7.03;;;3.65;;
80322;SDS011;69636;52.372;13.610;2023-06-01T09:06:57;9.00;;;3.80;;
80322;SDS011;69636;52.372;13.610;2023-06-01T09:14:42;8.82;;;3.60;;
80322;SDS011;69636;52.372;13.610;2023-06-01T09:17:11;8.77;;;3.70;;
80322;SDS011;69636;52.372;13.610;2023-06-01T09:19:40;11.10;;;3.97;;
80322;SDS011;69636;52.372;13.610;2023-06-01T09:22:08;7.57;;;4.03;;
80322;SDS011;69636;52.372;13.610;2023-06-01T09:24:38;9.57;;;4.15;;
80322;SDS011;69636;52.372;13.610;2023-06-01T09:27:05;7.15;;;4.32;;
80322;SDS011;69636;52.372;13.610;2023-06-01T09:29:33;5.82;;;4.30;;
80322;SDS011;69636;52.372;13.610;2023-06-01T09:32:01;7.78;;;4.35;;
80322;SDS011;69636;52.372;13.610;2023-06-01T09:34:28;9.27;;;3.67;;
80322;SDS011;69636;52.372;13.610;2023-06-01T09:36:55;8.35;;;4.03;;
80322;SDS011;69636;52.372;13.610;2023-06-01T09:39:23;7.60;;;3.65;;
80322;SDS011;69636;52.372;13.610;2023-06-01T09:41:53;8.38;;;4.15;;
80322;SDS011;69636;52.372;13.610;2023-06-01T09:44:22;6.10;;;3.90;;
80322;SDS011;69636;52.372;13.610;2023-06-01T09:46:53;7.68;;;3.85;;
80322;SDS011;69636;52.372;13.610;2023-06-01T09:49:22;8.18;;;4.10;;
80322;SDS011;69636;52.372;13.610;2023-06-01T09:51:51;8.77;;;3.83;;
80322;SDS011;69636;52.372;13.610;2023-06-01T09:54:24;6.38;;;3.40;;
80322;SDS011;69636;52.372;13.610;2023-06-01T09:56:54;9.07;;;3.65;;
80322;SDS011;69636;52.372;13.610;2023-06-01T09:59:42;6.68;;;3.83;;
80322;SDS011;69636;52.372;13.610;2023-06-01T10:02:12;8.13;;;3.95;;
80322;SDS011;69636;52.372;13.610;2023-06-01T10:04:41;8.13;;;3.85;;
80322;SDS011;69636;52.372;13.610;2023-06-01T10:07:11;9.02;;;4.18;;
80322;SDS011;69636;52.372;13.610;2023-06-01T10:09:41;8.27;;;4.50;;
80322;SDS011;69636;52.372;13.610;2023-06-01T10:12:11;7.15;;;4.13;;
80322;SDS011;69636;52.372;13.610;2023-06-01T10:14:39;7.88;;;4.00;;
80322;SDS011;69636;52.372;13.610;2023-06-01T10:17:06;8.95;;;4.22;;
80322;SDS011;69636;52.372;13.610;2023-06-01T10:19:35;7.07;;;4.30;;
80322;SDS011;69636;52.372;13.610;2023-06-01T10:22:04;7.28;;;4.53;;
80322;SDS011;69636;52.372;13.610;2023-06-01T10:24:31;9.18;;;5.40;;
80322;SDS011;69636;52.372;13.610;2023-06-01T10:27:01;7.38;;;4.00;;
80322;SDS011;69636;52.372;13.610;2023-06-01T10:29:35;8.60;;;5.03;;
80322;SDS011;69636;52.372;13.610;2023-06-01T10:32:03;8.48;;;4.55;;
80322;SDS011;69636;52.372;13.610;2023-06-01T10:34:36;7.95;;;5.50;;
80322;SDS011;69636;52.372;13.610;2023-06-01T10:37:11;10.82;;;7.15;;
80322;SDS011;69636;52.372;13.610;2023-06-01T10:39:42;10.20;;;5.25;;
80322;SDS011;69636;52.372;13.610;2023-06-01T10:44:48;8.43;;;5.40;;
80322;SDS011;69636;52.372;13.610;2023-06-01T10:50:13;7.75;;;5.47;;
80322;SDS011;69636;52.372;13.610;2023-06-01T10:52:42;7.90;;;6.03;;
80322;SDS011;69636;52.372;13.610;2023-06-01T10:55:18;9.38;;;5.80;;
80322;SDS011;69636;52.372;13.610;2023-06-01T10:57:49;12.00;;;7.28;;
80322;SDS011;69636;52.372;13.610;2023-06-01T11:00:19;10.55;;;6.57;;
80322;SDS011;69636;52.372;13.610;2023-06-01T11:02:51;10.93;;;6.68;;
80322;SDS011;69636;52.372;13.610;2023-06-01T11:05:33;11.02;;;7.40;;
80322;SDS011;69636;52.372;13.610;2023-06-01T11:08:05;11.85;;;6.97;;
80322;SDS011;69636;52.372;13.610;2023-06-01T11:10:53;12.13;;;7.28;;
80322;SDS011;69636;52.372;13.610;2023-06-01T11:13:25;10.32;;;7.18;;
80322;SDS011;69636;52.372;13.610;2023-06-01T11:21:27;12.25;;;7.25;;
80322;SDS011;69636;52.372;13.610;2023-06-01T11:23:57;12.30;;;7.25;;
80322;SDS011;69636;52.372;13.610;2023-06-01T11:26:28;10.38;;;6.90;;
80322;SDS011;69636;52.372;13.610;2023-06-01T11:29:04;10.60;;;7.45;;
80322;SDS011;69636;52.372;13.610;2023-06-01T11:31:36;9.55;;;7.35;;
80322;SDS011;69636;52.372;13.610;2023-06-01T11:34:06;13.18;;;8.52;;
80322;SDS011;69636;52.372;13.610;2023-06-01T11:36:44;9.73;;;7.03;;
80322;SDS011;69636;52.372;13.610;2023-06-01T11:39:22;11.43;;;7.35;;
80322;SDS011;69636;52.372;13.610;2023-06-01T11:41:51;11.02;;;7.50;;
80322;SDS011;69636;52.372;13.610;2023-06-01T11:44:19;10.30;;;7.65;;
80322;SDS011;69636;52.372;13.610;2023-06-01T11:46:53;13.18;;;8.00;;
80322;SDS011;69636;52.372;13.610;2023-06-01T11:49:23;13.48;;;7.32;;
80322;SDS011;69636;52.372;13.610;2023-06-01T11:51:50;12.85;;;7.45;;
80322;SDS011;69636;52.372;13.610;2023-06-01T11:54:25;9.77;;;6.90;;
80322;SDS011;69636;52.372;13.610;2023-06-01T11:56:53;12.05;;;7.93;;
80322;SDS011;69636;52.372;13.610;2023-06-01T11:59:24;10.63;;;6.85;;
80322;SDS011;69636;52.372;13.610;2023-06-01T12:04:20;8.98;;;7.13;;
80322;SDS011;69636;52.372;13.610;2023-06-01T12:06:50;10.77;;;7.00;;
80322;SDS011;69636;52.372;13.610;2023-06-01T12:09:17;9.40;;;7.03;;
80322;SDS011;69636;52.372;13.610;2023-06-01T12:11:45;10.65;;;6.68;;
80322;SDS011;69636;52.372;13.610;2023-06-01T12:14:13;9.30;;;5.90;;
80322;SDS011;69636;52.372;13.610;2023-06-01T12:16:51;10.05;;;6.28;;
80322;SDS011;69636;52.372;13.610;2023-06-01T12:19:19;9.15;;;6.30;;
80322;SDS011;69636;52.372;13.610;2023-06-01T12:21:47;10.57;;;6.00;;
80322;SDS011;69636;52.372;13.610;2023-06-01T12:24:16;9.40;;;6.05;;
80322;SDS011;69636;52.372;13.610;2023-06-01T12:26:44;9.82;;;5.63;;
80322;SDS011;69636;52.372;13.610;2023-06-01T12:29:11;10.77;;;5.93;;
80322;SDS011;69636;52.372;13.610;2023-06-01T12:34:14;9.25;;;4.70;;
80322;SDS011;69636;52.372;13.610;2023-06-01T12:36:42;8.98;;;4.80;;
80322;SDS011;69636;52.372;13.610;2023-06-01T12:39:09;8.82;;;4.55;;
80322;SDS011;69636;52.372;13.610;2023-06-01T12:41:47;7.50;;;4.25;;
80322;SDS011;69636;52.372;13.610;2023-06-01T12:44:17;8.15;;;4.30;;
80322;SDS011;69636;52.372;13.610;2023-06-01T12:46:45;7.53;;;4.43;;
80322;SDS011;69636;52.372;13.610;2023-06-01T12:51:40;6.70;;;3.83;;
80322;SDS011;69636;52.372;13.610;2023-06-01T12:54:08;7.57;;;4.72;;
80322;SDS011;69636;52.372;13.610;2023-06-01T12:59:04;7.97;;;3.33;;
80322;SDS011;69636;52.372;13.610;2023-06-01T13:01:31;9.35;;;4.32;;
80322;SDS011;69636;52.372;13.610;2023-06-01T13:06:26;7.43;;;4.25;;
80322;SDS011;69636;52.372;13.610;2023-06-01T13:08:53;7.65;;;4.03;;
80322;SDS011;69636;52.372;13.610;2023-06-01T13:11:20;11.70;;;5.13;;
80322;SDS011;69636;52.372;13.610;2023-06-01T13:13:48;7.38;;;4.07;;
80322;SDS011;69636;52.372;13.610;2023-06-01T13:18:44;8.45;;;3.97;;
80322;SDS011;69636;52.372;13.610;2023-06-01T13:21:12;7.32;;;3.83;;
80322;SDS011;69636;52.372;13.610;2023-06-01T13:26:06;6.88;;;3.80;;
80322;SDS011;69636;52.372;13.610;2023-06-01T13:31:01;8.23;;;3.95;;
80322;SDS011;69636;52.372;13.610;2023-06-01T13:33:29;23.20;;;11.38;;
80322;SDS011;69636;52.372;13.610;2023-06-01T13:35:57;8.35;;;4.63;;
80322;SDS011;69636;52.372;13.610;2023-06-01T13:38:24;9.05;;;3.92;;
80322;SDS011;69636;52.372;13.610;2023-06-01T13:40:51;6.35;;;3.60;;
80322;SDS011;69636;52.372;13.610;2023-06-01T13:45:46;9.05;;;4.28;;
80322;SDS011;69636;52.372;13.610;2023-06-01T13:50:45;9.05;;;3.97;;
80322;SDS011;69636;52.372;13.610;2023-06-01T13:53:13;6.55;;;3.40;;
80322;SDS011;69636;52.372;13.610;2023-06-01T13:58:07;6.90;;;3.35;;
80322;SDS011;69636;52.372;13.610;2023-06-01T14:00:34;6.65;;;3.20;;
80322;SDS011;69636;52.372;13.610;2023-06-01T14:05:29;8.77;;;3.53;;
80322;SDS011;69636;52.372;13.610;2023-06-01T14:08:17;7.00;;;3.45;;
80322;SDS011;69636;52.372;13.610;2023-06-01T14:10:45;5.57;;;3.50;;
80322;SDS011;69636;52.372;13.610;2023-06-01T14:13:12;6.30;;;3.58;;
80322;SDS011;69636;52.372;13.610;2023-06-01T14:15:40;6.35;;;3.20;;
80322;SDS011;69636;52.372;13.610;2023-06-01T14:18:07;8.82;;;3.42;;
80322;SDS011;69636;52.372;13.610;2023-06-01T14:20:34;7.32;;;2.92;;
80322;SDS011;69636;52.372;13.610;2023-06-01T14:23:02;6.63;;;3.58;;
80322;SDS011;69636;52.372;13.610;2023-06-01T14:27:58;8.30;;;3.50;;
80322;SDS011;69636;52.372;13.610;2023-06-01T14:30:25;7.60;;;3.60;;
80322;SDS011;69636;52.372;13.610;2023-06-01T14:32:52;8.10;;;3.70;;
80322;SDS011;69636;52.372;13.610;2023-06-01T14:35:20;7.05;;;3.65;;
80322;SDS011;69636;52.372;13.610;2023-06-01T14:37:47;7.15;;;3.60;;
80322;SDS011;69636;52.372;13.610;2023-06-01T14:40:16;6.78;;;3.65;;
80322;SDS011;69636;52.372;13.610;2023-06-01T14:42:45;8.02;;;3.75;;
80322;SDS011;69636;52.372;13.610;2023-06-01T14:45:12;6.20;;;3.53;;
80322;SDS011;69636;52.372;13.610;2023-06-01T14:50:08;6.38;;;3.40;;
80322;SDS011;69636;52.372;13.610;2023-06-01T14:52:36;7.10;;;3.58;;
80322;SDS011;69636;52.372;13.610;2023-06-01T14:55:03;5.32;;;3.28;;
80322;SDS011;69636;52.372;13.610;2023-06-01T14:57:31;7.97;;;3.63;;
80322;SDS011;69636;52.372;13.610;2023-06-01T15:00:00;7.05;;;3.85;;
80322;SDS011;69636;52.372;13.610;2023-06-01T15:02:32;7.53;;;3.97;;
80322;SDS011;69636;52.372;13.610;2023-06-01T15:04:59;7.13;;;3.78;;
80322;SDS011;69636;52.372;13.610;2023-06-01T15:07:27;7.13;;;3.40;;
80322;SDS011;69636;52.372;13.610;2023-06-01T15:12:21;6.80;;;3.30;;
80322;SDS011;69636;52.372;13.610;2023-06-01T15:14:49;8.95;;;3.45;;
80322;SDS011;69636;52.372;13.610;2023-06-01T15:17:17;8.00;;;4.07;;
80322;SDS011;69636;52.372;13.610;2023-06-01T15:19:45;8.32;;;3.97;;
80322;SDS011;69636;52.372;13.610;2023-06-01T15:22:13;9.00;;;4.15;;
80322;SDS011;69636;52.372;13.610;2023-06-01T15:27:07;6.78;;;3.45;;
80322;SDS011;69636;52.372;13.610;2023-06-01T15:32:01;7.22;;;3.83;;
80322;SDS011;69636;52.372;13.610;2023-06-01T15:34:31;8.85;;;4.57;;
80322;SDS011;69636;52.372;13.610;2023-06-01T15:36:58;9.27;;;3.95;;
80322;SDS011;69636;52.372;13.610;2023-06-01T15:39:25;11.77;;;8.52;;
80322;SDS011;69636;52.372;13.610;2023-06-01T15:41:53;5.75;;;3.70;;
80322;SDS011;69636;52.372;13.610;2023-06-01T15:44:23;9.23;;;4.05;;
80322;SDS011;69636;52.372;13.610;2023-06-01T15:49:18;7.07;;;3.83;;
80322;SDS011;69636;52.372;13.610;2023-06-01T15:54:13;7.80;;;3.70;;
80322;SDS011;69636;52.372;13.610;2023-06-01T15:56:41;6.57;;;4.25;;